createdAt,value
2022-10-09T00:02:17.921Z,10.50
2022-10-09T00:04:55.171Z,10.50
2022-10-09T00:07:28.116Z,10.50
2022-10-09T00:10:13.807Z,10.40
2022-10-09T00:12:46.650Z,10.40
2022-10-09T00:15:18.517Z,10.40
2022-10-09T00:17:56.897Z,10.40
2022-10-09T00:20:35.076Z,10.40
2022-10-09T00:23:07.509Z,10.30
2022-10-09T00:25:53.146Z,10.30
2022-10-09T00:28:24.613Z,10.30
2022-10-09T00:30:59.479Z,10.30
2022-10-09T00:33:35.403Z,10.30
2022-10-09T00:36:58.803Z,10.30
2022-10-09T00:39:31.427Z,10.20
2022-10-09T00:42:04.364Z,10.20
2022-10-09T00:44:58.011Z,10.20
2022-10-09T00:47:46.360Z,10.20
2022-10-09T00:50:23.494Z,10.20
2022-10-09T00:52:57.654Z,10.10
2022-10-09T00:55:36.897Z,10.10
2022-10-09T00:58:07.069Z,10.10
2022-10-09T01:00:35.466Z,10.10
2022-10-09T01:03:07.389Z,10.10
2022-10-09T01:05:54.916Z,10.00
2022-10-09T01:08:36.752Z,10.10
2022-10-09T01:11:12.552Z,10.00
2022-10-09T01:13:57.265Z,10.00
2022-10-09T01:16:32.560Z,10.00
2022-10-09T01:19:16.541Z,10.00
2022-10-09T01:22:02.727Z,10.00
2022-10-09T01:24:41.152Z,10.00
2022-10-09T01:27:18.535Z,9.90
2022-10-09T01:29:54.240Z,9.90
2022-10-09T01:32:29.821Z,9.90
2022-10-09T01:34:59.466Z,9.90
2022-10-09T01:37:30.688Z,9.90
2022-10-09T01:40:17.583Z,9.80
2022-10-09T01:42:48.852Z,9.80
2022-10-09T01:45:17.693Z,9.80
2022-10-09T01:47:47.081Z,9.80
2022-10-09T01:50:23.051Z,9.80
2022-10-09T01:52:54.483Z,9.80
2022-10-09T01:55:37.623Z,9.70
2022-10-09T01:58:11.951Z,9.80
2022-10-09T02:00:44.802Z,9.70
2022-10-09T02:03:16.678Z,9.70
2022-10-09T02:05:50.758Z,9.70
2022-10-09T02:08:21.636Z,9.70
2022-10-09T02:10:53.454Z,9.70
2022-10-09T02:13:24.166Z,9.60
2022-10-09T02:15:58.820Z,9.70
2022-10-09T02:18:35.747Z,9.60
2022-10-09T02:21:17.957Z,9.60
2022-10-09T02:23:47.813Z,9.60
2022-10-09T02:26:16.279Z,9.60
2022-10-09T02:28:46.642Z,9.60
2022-10-09T02:31:19.585Z,9.60
2022-10-09T02:33:51.645Z,9.50
2022-10-09T02:36:20.076Z,9.50
2022-10-09T02:38:48.491Z,9.50
2022-10-09T02:41:16.950Z,9.50
2022-10-09T02:43:47.442Z,9.50
2022-10-09T02:46:15.708Z,9.50
2022-10-09T02:48:44.138Z,9.50
2022-10-09T02:51:12.689Z,9.40
2022-10-09T02:53:43.295Z,9.40
2022-10-09T02:56:11.801Z,9.40
2022-10-09T02:58:40.966Z,9.40
2022-10-09T03:01:10.797Z,9.40
2022-10-09T03:03:38.834Z,9.40
2022-10-09T03:06:09.678Z,9.40
2022-10-09T03:08:38.610Z,9.30
2022-10-09T03:11:07.100Z,9.30
2022-10-09T03:13:39.626Z,9.30
2022-10-09T03:16:11.316Z,9.30
2022-10-09T03:18:39.950Z,9.30
2022-10-09T03:21:09.114Z,9.30
2022-10-09T03:23:38.042Z,9.30
2022-10-09T03:26:07.955Z,9.30
2022-10-09T03:28:38.084Z,9.20
2022-10-09T03:31:06.463Z,9.20
2022-10-09T03:33:37.058Z,9.20
2022-10-09T03:36:06.641Z,9.20
2022-10-09T03:38:37.936Z,9.20
2022-10-09T03:41:06.679Z,9.20
2022-10-09T03:43:35.677Z,9.20
2022-10-09T03:46:07.543Z,9.10
2022-10-09T03:48:40.109Z,9.10
2022-10-09T03:51:08.198Z,9.10
2022-10-09T03:53:36.408Z,9.10
2022-10-09T03:56:06.539Z,9.10
2022-10-09T03:58:34.521Z,9.00
2022-10-09T04:01:02.956Z,9.10
2022-10-09T04:03:31.478Z,9.00
2022-10-09T04:06:01.139Z,9.00
2022-10-09T04:08:29.648Z,9.00
2022-10-09T04:10:59.090Z,9.00
2022-10-09T04:13:27.809Z,9.00
2022-10-09T04:15:58.207Z,8.90
2022-10-09T04:18:26.725Z,8.90
2022-10-09T04:20:57.396Z,8.90
2022-10-09T04:23:28.294Z,8.90
2022-10-09T04:25:58.444Z,8.90
2022-10-09T04:28:27.243Z,8.90
2022-10-09T04:30:55.540Z,8.90
2022-10-09T04:33:23.684Z,8.90
2022-10-09T04:35:53.822Z,8.80
2022-10-09T04:38:23.117Z,8.80
2022-10-09T04:40:58.529Z,8.80
2022-10-09T04:43:26.945Z,8.80
2022-10-09T04:45:55.533Z,8.80
2022-10-09T04:48:23.874Z,8.70
2022-10-09T04:50:52.530Z,8.70
2022-10-09T04:53:20.881Z,8.70
2022-10-09T04:55:49.554Z,8.80
2022-10-09T04:58:20.824Z,8.70
2022-10-09T05:00:49.233Z,8.70
2022-10-09T05:03:17.473Z,8.70
2022-10-09T05:05:45.685Z,8.60
2022-10-09T05:08:14.369Z,8.70
2022-10-09T05:10:42.537Z,8.60
2022-10-09T05:13:10.966Z,8.60
2022-10-09T05:15:43.842Z,8.60
2022-10-09T05:18:12.137Z,8.60
2022-10-09T05:20:42.409Z,8.60
2022-10-09T05:23:10.574Z,8.60
2022-10-09T05:25:38.587Z,8.60
2022-10-09T05:28:06.731Z,8.50
2022-10-09T05:30:34.984Z,8.50
2022-10-09T05:33:04.607Z,8.50
2022-10-09T05:35:33.073Z,8.50
2022-10-09T05:38:01.493Z,8.50
2022-10-09T05:40:29.725Z,8.50
2022-10-09T05:42:57.843Z,8.50
2022-10-09T05:45:25.908Z,8.40
2022-10-09T05:47:57.087Z,8.40
2022-10-09T05:50:26.964Z,8.40
2022-10-09T05:52:55.166Z,8.40
2022-10-09T05:55:23.219Z,8.40
2022-10-09T05:57:51.262Z,8.40
2022-10-09T06:00:19.408Z,8.40
2022-10-09T06:02:48.079Z,8.40
2022-10-09T06:05:16.431Z,8.40
2022-10-09T06:07:47.524Z,8.40
2022-10-09T06:10:18.904Z,8.30
2022-10-09T06:12:47.578Z,8.30
2022-10-09T06:15:16.075Z,8.30
2022-10-09T06:17:45.138Z,8.30
2022-10-09T06:20:13.188Z,8.30
2022-10-09T06:22:43.053Z,8.30
2022-10-09T06:25:13.293Z,8.20
2022-10-09T06:27:43.642Z,8.30
2022-10-09T06:30:13.090Z,8.30
2022-10-09T06:32:41.737Z,8.20
2022-10-09T06:35:10.741Z,8.30
2022-10-09T06:37:38.828Z,8.30
2022-10-09T06:40:07.773Z,8.20
2022-10-09T06:42:37.477Z,8.20
2022-10-09T06:45:23.553Z,8.20
2022-10-09T06:47:52.017Z,8.20
2022-10-09T06:50:20.324Z,8.20
2022-10-09T06:52:48.632Z,8.20
2022-10-09T06:55:17.317Z,8.20
2022-10-09T06:57:49.081Z,8.20
2022-10-09T07:00:17.425Z,8.10
2022-10-09T07:02:45.693Z,8.20
2022-10-09T07:05:13.904Z,8.20
2022-10-09T07:07:43.976Z,8.20
2022-10-09T07:10:12.214Z,8.20
2022-10-09T07:12:40.644Z,8.20
2022-10-09T07:15:12.470Z,8.20
2022-10-09T07:17:40.949Z,8.20
2022-10-09T07:20:09.658Z,8.20
2022-10-09T07:22:37.754Z,8.10
2022-10-09T07:25:08.093Z,8.20
2022-10-09T07:27:50.452Z,8.20
2022-10-09T07:30:27.077Z,8.10
2022-10-09T07:32:55.639Z,8.10
2022-10-09T07:35:23.676Z,8.20
2022-10-09T07:37:55.313Z,8.20
2022-10-09T07:40:57.450Z,8.20
2022-10-09T07:43:43.809Z,8.20
2022-10-09T07:46:17.376Z,8.20
2022-10-09T07:48:50.994Z,8.20
2022-10-09T07:51:22.592Z,8.20
2022-10-09T07:53:52.053Z,8.20
2022-10-09T07:56:31.278Z,8.20
2022-10-09T07:59:23.063Z,8.20
2022-10-09T08:01:52.699Z,8.20
2022-10-09T08:04:23.691Z,8.30
2022-10-09T08:06:54.413Z,8.30
2022-10-09T08:09:22.588Z,8.40
2022-10-09T08:11:52.513Z,8.40
2022-10-09T08:14:23.340Z,8.40
2022-10-09T08:16:53.009Z,8.50
2022-10-09T08:19:20.865Z,8.50
2022-10-09T08:21:49.158Z,8.60
2022-10-09T08:24:17.897Z,8.60
2022-10-09T08:26:46.178Z,8.70
2022-10-09T08:29:20.561Z,8.70
2022-10-09T08:31:48.799Z,8.80
2022-10-09T08:34:19.017Z,8.80
2022-10-09T08:36:47.183Z,8.90
2022-10-09T08:39:15.630Z,8.90
2022-10-09T08:41:46.651Z,8.90
2022-10-09T08:44:31.521Z,8.90
2022-10-09T08:47:06.487Z,9.00
2022-10-09T08:49:44.883Z,9.00
2022-10-09T08:52:25.957Z,9.00
2022-10-09T08:55:00.873Z,9.10
2022-10-09T08:57:34.127Z,9.20
2022-10-09T09:00:07.600Z,9.20
2022-10-09T09:02:52.873Z,9.20
2022-10-09T09:05:35.468Z,9.20
2022-10-09T09:08:19.593Z,9.20
2022-10-09T09:10:56.915Z,9.30
2022-10-09T09:13:46.034Z,9.30
2022-10-09T09:16:24.954Z,9.30
2022-10-09T09:19:16.926Z,9.40
2022-10-09T09:21:54.082Z,9.40
2022-10-09T09:24:27.617Z,9.40
2022-10-09T09:27:11.736Z,9.40
2022-10-09T09:29:45.100Z,9.50
2022-10-09T09:32:18.910Z,9.50
2022-10-09T09:34:49.567Z,9.50
2022-10-09T09:37:19.535Z,9.60
2022-10-09T09:40:35.045Z,9.60
2022-10-09T09:42:35.798Z,9.60
2022-10-09T09:45:07.617Z,9.60
2022-10-09T09:47:41.801Z,9.70
2022-10-09T09:50:28.600Z,9.70
2022-10-09T09:53:03.694Z,9.70
2022-10-09T09:55:33.866Z,9.80
2022-10-09T09:58:04.297Z,9.80
2022-10-09T10:00:32.750Z,9.80
2022-10-09T10:03:11.101Z,9.80
2022-10-09T10:05:40.693Z,9.90
2022-10-09T10:08:22.601Z,9.90
2022-10-09T10:10:52.436Z,9.90
2022-10-09T10:13:23.101Z,9.90
2022-10-09T10:15:54.728Z,10.00
2022-10-09T10:18:25.111Z,10.00
2022-10-09T10:20:55.484Z,10.00
2022-10-09T10:23:33.318Z,10.10
2022-10-09T10:26:06.781Z,10.10
2022-10-09T10:28:42.727Z,10.10
2022-10-09T10:31:20.867Z,10.20
2022-10-09T10:33:58.651Z,10.20
2022-10-09T10:36:29.647Z,10.20
2022-10-09T10:39:07.468Z,10.30
2022-10-09T10:41:42.744Z,10.30
2022-10-09T10:44:20.657Z,10.30
2022-10-09T10:46:53.046Z,10.30
2022-10-09T10:49:24.305Z,10.30
2022-10-09T10:52:08.713Z,10.40
2022-10-09T10:54:41.921Z,10.40
2022-10-09T10:57:17.834Z,10.40
2022-10-09T10:59:57.732Z,10.50
2022-10-09T11:02:55.650Z,10.50
2022-10-09T11:05:35.298Z,10.50
2022-10-09T11:08:15.753Z,10.60
2022-10-09T11:10:56.485Z,10.60
2022-10-09T11:13:29.135Z,10.60
2022-10-09T11:16:07.159Z,10.60
2022-10-09T11:18:57.123Z,10.70
2022-10-09T11:21:42.682Z,10.70
2022-10-09T11:24:31.358Z,10.70
2022-10-09T11:27:07.901Z,10.70
2022-10-09T11:29:42.141Z,10.80
2022-10-09T11:32:15.230Z,10.80
2022-10-09T11:34:48.179Z,10.80
2022-10-09T11:37:23.742Z,10.80
2022-10-09T11:39:52.158Z,10.90
2022-10-09T11:42:24.627Z,10.90
2022-10-09T11:45:04.759Z,10.90
2022-10-09T11:47:41.305Z,10.90
2022-10-09T11:50:25.065Z,11.00
2022-10-09T11:52:59.722Z,11.00
2022-10-09T11:55:30.640Z,11.00
2022-10-09T11:58:15.222Z,11.00
2022-10-09T12:00:44.290Z,11.00
2022-10-09T12:03:26.802Z,11.10
2022-10-09T12:06:06.036Z,11.10
2022-10-09T12:08:37.141Z,11.10
2022-10-09T12:11:13.608Z,11.20
2022-10-09T12:13:53.171Z,11.20
2022-10-09T12:16:42.835Z,11.20
2022-10-09T12:19:19.943Z,11.20
2022-10-09T12:21:53.738Z,11.20
2022-10-09T12:24:26.150Z,11.30
2022-10-09T12:27:00.928Z,11.30
2022-10-09T12:29:35.981Z,11.30
2022-10-09T12:32:09.107Z,11.30
2022-10-09T12:34:44.729Z,11.30
2022-10-09T12:37:18.408Z,11.40
2022-10-09T12:39:48.720Z,11.40
2022-10-09T12:42:24.638Z,11.40
2022-10-09T12:44:57.236Z,11.40
2022-10-09T12:47:28.521Z,11.40
2022-10-09T12:49:58.936Z,11.40
2022-10-09T12:52:29.806Z,11.50
2022-10-09T12:54:58.282Z,11.50
2022-10-09T12:57:28.047Z,11.50
2022-10-09T12:59:58.670Z,11.50
2022-10-09T13:02:26.925Z,11.60
2022-10-09T13:05:02.964Z,11.60
2022-10-09T13:07:33.314Z,11.60
2022-10-09T13:10:05.361Z,11.60
2022-10-09T13:12:37.187Z,11.60
2022-10-09T13:15:08.101Z,11.70
2022-10-09T13:17:38.580Z,11.60
2022-10-09T13:20:25.438Z,11.70
2022-10-09T13:22:58.608Z,11.70
2022-10-09T13:25:28.123Z,11.70
2022-10-09T13:27:56.293Z,11.70
2022-10-09T13:30:25.970Z,11.80
2022-10-09T13:32:54.213Z,11.70
2022-10-09T13:35:22.833Z,11.80
2022-10-09T13:37:51.492Z,11.80
2022-10-09T13:40:22.272Z,11.80
2022-10-09T13:42:54.050Z,11.80
2022-10-09T13:45:22.395Z,11.90
2022-10-09T13:47:52.436Z,11.90
2022-10-09T13:50:21.048Z,11.90
2022-10-09T13:52:49.807Z,11.90
2022-10-09T13:55:18.103Z,11.90
2022-10-09T13:57:47.773Z,12.00
2022-10-09T14:00:18.085Z,12.00
2022-10-09T14:02:46.717Z,12.00
2022-10-09T14:05:17.163Z,12.00
2022-10-09T14:07:45.322Z,12.00
2022-10-09T14:10:13.386Z,12.10
2022-10-09T14:12:41.919Z,12.00
2022-10-09T14:15:10.946Z,12.10
2022-10-09T14:17:39.100Z,12.10
2022-10-09T14:20:07.989Z,12.10
2022-10-09T14:22:37.859Z,12.10
2022-10-09T14:25:06.785Z,12.10
2022-10-09T14:30:03.438Z,12.20
2022-10-09T14:32:31.661Z,12.20
2022-10-09T14:35:00.270Z,12.20
2022-10-09T14:37:41.088Z,12.20
2022-10-09T14:40:12.020Z,12.20
2022-10-09T14:42:40.959Z,12.20
2022-10-09T14:45:10.611Z,12.20
2022-10-09T14:47:38.960Z,12.20
2022-10-09T14:50:08.027Z,12.30
2022-10-09T14:52:36.330Z,12.30
2022-10-09T14:55:04.666Z,12.30
2022-10-09T14:57:35.712Z,12.30
2022-10-09T15:00:05.629Z,12.30
2022-10-09T15:02:35.359Z,12.30
2022-10-09T15:05:05.640Z,12.40
2022-10-09T15:07:34.482Z,12.40
2022-10-09T15:10:02.997Z,12.40
2022-10-09T15:12:31.224Z,12.40
2022-10-09T15:15:01.239Z,12.40
2022-10-09T15:17:29.375Z,12.40
2022-10-09T15:19:57.371Z,12.40
2022-10-09T15:22:25.517Z,12.40
2022-10-09T15:24:53.493Z,12.40
2022-10-09T15:27:21.498Z,12.40
2022-10-09T15:29:49.487Z,12.40
2022-10-09T15:32:21.341Z,12.50
2022-10-09T15:34:49.603Z,12.40
2022-10-09T15:37:17.715Z,12.50
2022-10-09T15:39:45.750Z,12.50
2022-10-09T15:42:13.885Z,12.50
2022-10-09T15:44:43.441Z,12.50
2022-10-09T15:47:16.338Z,12.50
2022-10-09T15:49:49.035Z,12.50
2022-10-09T15:52:21.102Z,12.50
2022-10-09T15:54:49.042Z,12.60
2022-10-09T15:57:17.114Z,12.50
2022-10-09T15:59:45.291Z,12.50
2022-10-09T16:02:13.992Z,12.60
2022-10-09T16:04:42.147Z,12.60
2022-10-09T16:07:11.899Z,12.60
2022-10-09T16:09:39.950Z,12.60
2022-10-09T16:12:08.284Z,12.60
2022-10-09T16:14:38.187Z,12.60
2022-10-09T16:17:10.955Z,12.60
2022-10-09T16:19:39.676Z,12.60
2022-10-09T16:22:07.838Z,12.60
2022-10-09T16:24:37.900Z,12.60
2022-10-09T16:27:06.120Z,12.60
2022-10-09T16:29:34.207Z,12.60
2022-10-09T16:32:02.332Z,12.60
2022-10-09T16:34:30.486Z,12.60
2022-10-09T16:37:01.969Z,12.60
2022-10-09T16:39:30.196Z,12.60
2022-10-09T16:42:03.880Z,12.60
2022-10-09T16:44:32.417Z,12.50
2022-10-09T16:47:00.641Z,12.60
2022-10-09T16:49:28.702Z,12.50
2022-10-09T16:51:56.638Z,12.50
2022-10-09T16:54:24.800Z,12.50
2022-10-09T16:56:53.223Z,12.50
2022-10-09T16:59:35.436Z,12.40
2022-10-09T17:02:12.720Z,12.50
2022-10-09T17:04:46.133Z,12.40
2022-10-09T17:07:14.729Z,12.50
2022-10-09T17:09:44.911Z,12.40
2022-10-09T17:12:15.588Z,12.40
2022-10-09T17:14:53.504Z,12.40
2022-10-09T17:17:26.920Z,12.40
2022-10-09T17:19:56.508Z,12.40
2022-10-09T17:22:25.397Z,12.40
2022-10-09T17:24:57.806Z,12.30
2022-10-09T17:27:54.537Z,12.30
2022-10-09T17:31:11.406Z,12.30
2022-10-09T17:33:46.722Z,12.30
2022-10-09T17:37:08.818Z,12.30
2022-10-09T17:39:31.599Z,12.30
2022-10-09T17:42:00.119Z,12.30
2022-10-09T17:44:37.943Z,12.30
2022-10-09T17:47:15.628Z,12.20
2022-10-09T17:49:55.792Z,12.20
2022-10-09T17:52:26.423Z,12.20
2022-10-09T17:55:10.173Z,12.20
2022-10-09T17:57:52.812Z,12.20
2022-10-09T18:00:32.163Z,12.20
2022-10-09T18:03:32.277Z,12.20
2022-10-09T18:06:11.848Z,12.20
2022-10-09T18:08:57.993Z,12.10
2022-10-09T18:11:32.961Z,12.10
2022-10-09T18:14:06.969Z,12.10
2022-10-09T18:16:43.147Z,12.10
2022-10-09T18:19:30.216Z,12.10
2022-10-09T18:22:28.303Z,12.10
2022-10-09T18:25:48.650Z,12.10
2022-10-09T18:28:23.835Z,12.10
2022-10-09T18:30:52.839Z,12.00
2022-10-09T18:33:31.329Z,12.00
2022-10-09T18:36:55.784Z,12.00
2022-10-09T18:40:19.847Z,12.00
2022-10-09T18:46:20.391Z,12.00
2022-10-09T18:49:14.417Z,12.00
2022-10-09T18:51:52.314Z,11.90
2022-10-09T18:54:23.237Z,11.90
2022-10-09T18:56:55.804Z,11.90
2022-10-09T18:59:25.083Z,11.90
2022-10-09T19:01:57.911Z,11.90
2022-10-09T19:04:26.148Z,11.90
2022-10-09T19:06:59.282Z,11.90
2022-10-09T19:09:32.119Z,11.90
2022-10-09T19:12:00.666Z,11.90
2022-10-09T19:14:53.862Z,11.90
2022-10-09T19:17:48.377Z,11.80
2022-10-09T19:20:18.765Z,11.80
2022-10-09T19:22:55.130Z,11.80
2022-10-09T19:25:37.224Z,11.80
2022-10-09T19:28:20.787Z,11.80
2022-10-09T19:31:17.212Z,11.80
2022-10-09T19:34:22.505Z,11.80
2022-10-09T19:37:16.893Z,11.80
2022-10-09T19:40:05.783Z,11.80
2022-10-09T19:42:49.518Z,11.80
2022-10-09T19:48:58.347Z,11.70
2022-10-09T19:51:47.400Z,11.70
2022-10-09T19:54:39.017Z,11.70
2022-10-09T19:57:48.273Z,11.70
2022-10-09T20:00:50.207Z,11.70
2022-10-09T20:03:29.200Z,11.70
2022-10-09T20:09:08.336Z,11.70
2022-10-09T20:11:38.105Z,11.70
2022-10-09T20:14:26.861Z,11.70
2022-10-09T20:17:00.379Z,11.70
2022-10-09T20:19:42.271Z,11.70
2022-10-09T20:22:21.639Z,11.60
2022-10-09T20:24:59.048Z,11.70
2022-10-09T20:27:36.191Z,11.60
2022-10-09T20:30:32.803Z,11.70
2022-10-09T20:33:09.353Z,11.60
2022-10-09T20:35:48.608Z,11.60
2022-10-09T20:38:37.874Z,11.60
2022-10-09T20:41:12.399Z,11.60
2022-10-09T20:43:45.516Z,11.60
2022-10-09T20:46:31.246Z,11.60
2022-10-09T20:49:06.016Z,11.60
2022-10-09T20:51:38.677Z,11.60
2022-10-09T20:54:13.897Z,11.60
2022-10-09T20:56:54.093Z,11.60
2022-10-09T20:59:22.500Z,11.60
2022-10-09T21:02:00.547Z,11.50
2022-10-09T21:04:29.372Z,11.50
2022-10-09T21:07:01.211Z,11.50
2022-10-09T21:09:33.151Z,11.50
2022-10-09T21:12:11.783Z,11.60
2022-10-09T21:14:44.487Z,11.50
2022-10-09T21:17:31.331Z,11.50
2022-10-09T21:20:17.161Z,11.50
2022-10-09T21:22:50.966Z,11.50
2022-10-09T21:25:22.917Z,11.50
2022-10-09T21:31:26.467Z,11.50
2022-10-09T21:34:14.817Z,11.50
2022-10-09T21:37:08.810Z,11.50
2022-10-09T21:39:38.571Z,11.50
2022-10-09T21:42:07.267Z,11.40
2022-10-09T21:44:38.794Z,11.40
2022-10-09T21:47:19.910Z,11.40
2022-10-09T21:49:55.984Z,11.40
2022-10-09T21:52:25.873Z,11.40
2022-10-09T21:55:10.541Z,11.40
2022-10-09T21:57:45.275Z,11.40
2022-10-09T22:00:25.635Z,11.40
2022-10-09T22:03:06.588Z,11.40
2022-10-09T22:05:41.053Z,11.40
2022-10-09T22:08:14.291Z,11.40
2022-10-09T22:10:46.664Z,11.40
2022-10-09T22:13:16.619Z,11.40
2022-10-09T22:15:51.144Z,11.40
2022-10-09T22:21:14.665Z,11.30
2022-10-09T22:23:45.481Z,11.30
2022-10-09T22:26:19.565Z,11.30
2022-10-09T22:29:03.134Z,11.30
2022-10-09T22:31:42.053Z,11.30
2022-10-09T22:34:15.157Z,11.30
2022-10-09T22:36:54.586Z,11.30
2022-10-09T22:39:46.145Z,11.30
2022-10-09T22:42:27.266Z,11.30
2022-10-09T22:44:58.915Z,11.30
2022-10-09T22:47:53.526Z,11.30
2022-10-09T22:50:30.813Z,11.20
2022-10-09T22:59:07.442Z,11.20
2022-10-09T23:01:55.810Z,11.20
2022-10-09T23:07:59.429Z,11.20
2022-10-09T23:11:14.139Z,11.10
2022-10-09T23:17:23.719Z,11.10
2022-10-09T23:20:27.227Z,11.10
2022-10-09T23:23:39.656Z,11.10
2022-10-09T23:26:38.797Z,11.10
2022-10-09T23:29:36.444Z,11.10
2022-10-09T23:32:38.750Z,11.00
2022-10-09T23:35:48.813Z,11.00
2022-10-09T23:38:53.701Z,11.00
2022-10-09T23:41:58.769Z,11.00
2022-10-09T23:45:26.920Z,11.00
2022-10-09T23:48:30.164Z,10.90
2022-10-09T23:51:57.218Z,10.90
2022-10-09T23:54:57.257Z,10.90
2022-10-09T23:58:04.275Z,10.90
